Terminal Aerodrome Forecast
Issued by NWS Shreveport, LA

Home | Current Version | Previous Version | Text Only | Print | Product List | Glossary On
Versions: 1 2 3 4 5 6 7 8 9 10 11 12 13
000
FTUS44 KSHV 270600 AAA
TAFTXK
TAF AMD
KTXK 270648Z 2707/2806 17003KT 5SM BR VCSH OVC004
      TEMPO 2707/2711 2SM -TSRA BKN004 OVC015CB
     FM271200 16005KT 1 1/2SM -RA OVC003
     FM271500 31005KT 3SM -SHRA BR OVC007
     FM272100 34009KT 5SM -SHRA BR OVC007
     FM280000 34008KT 4SM BR OVC007=

USA.gov is the U.S. government's official web portal to all federal, state and local government web resources and services.